createdAt,value
2019-04-11T00:00:33.826Z,96.50
2019-04-11T00:03:03.014Z,96.10
2019-04-11T00:05:31.910Z,95.90
2019-04-11T00:08:01.699Z,96.00
2019-04-11T00:10:31.301Z,95.90
2019-04-11T00:13:01.095Z,95.90
2019-04-11T00:15:30.697Z,96.00
2019-04-11T00:18:00.580Z,95.90
2019-04-11T00:20:29.305Z,96.00
2019-04-11T00:22:57.801Z,96.10
2019-04-11T00:25:27.378Z,96.20
2019-04-11T00:27:57.279Z,96.30
2019-04-11T00:30:26.313Z,96.30
2019-04-11T00:32:55.961Z,96.20
2019-04-11T00:35:25.799Z,96.10
2019-04-11T00:37:54.531Z,96.50
2019-04-11T00:40:23.289Z,96.30
2019-04-11T00:42:52.625Z,96.40
2019-04-11T00:45:21.616Z,96.30
2019-04-11T00:47:50.365Z,96.40
2019-04-11T00:50:19.053Z,96.30
2019-04-11T00:52:47.711Z,96.50
2019-04-11T00:55:16.209Z,96.70
2019-04-11T00:57:45.374Z,96.60
2019-04-11T01:00:15.159Z,96.50
2019-04-11T01:02:43.773Z,96.60
2019-04-11T01:05:13.027Z,96.70
2019-04-11T01:07:42.830Z,96.60
2019-04-11T01:10:11.563Z,96.50
2019-04-11T01:12:40.793Z,97.10
2019-04-11T01:15:11.277Z,97.20
2019-04-11T01:17:39.838Z,96.70
2019-04-11T01:20:09.055Z,96.60
2019-04-11T01:22:38.340Z,96.70
2019-04-11T01:25:08.466Z,96.60
2019-04-11T01:27:39.429Z,96.60
2019-04-11T01:30:09.807Z,96.90
2019-04-11T01:32:38.460Z,97.10
2019-04-11T01:35:07.184Z,97.20
2019-04-11T01:37:36.708Z,97.50
2019-04-11T01:40:07.674Z,97.40
2019-04-11T01:42:37.515Z,97.40
2019-04-11T01:45:07.503Z,97.50
2019-04-11T01:47:49.427Z,97.70
2019-04-11T01:50:19.530Z,97.70
2019-04-11T01:52:48.756Z,97.90
2019-04-11T01:55:18.480Z,98.10
2019-04-11T01:57:47.082Z,98.10
2019-04-11T02:00:18.231Z,98.20
2019-04-11T02:02:48.629Z,98.30
2019-04-11T02:05:18.901Z,98.50
2019-04-11T02:07:47.648Z,98.40
2019-04-11T02:10:16.881Z,98.70
2019-04-11T02:12:45.650Z,98.90
2019-04-11T02:15:14.763Z,98.80
2019-04-11T02:17:43.288Z,98.90
2019-04-11T02:20:12.546Z,99.00
2019-04-11T02:22:52.875Z,99.10
2019-04-11T02:25:32.370Z,99.20
2019-04-11T02:28:02.470Z,99.50
2019-04-11T02:30:33.723Z,99.50
2019-04-11T02:33:02.257Z,99.50
2019-04-11T02:35:31.160Z,99.80
2019-04-11T02:38:00.314Z,99.60
2019-04-11T02:40:30.158Z,99.90
2019-04-11T02:42:59.484Z,99.50
2019-04-11T02:45:42.702Z,99.60
2019-04-11T02:47:59.389Z,99.70
2019-04-11T02:50:29.755Z,99.80
2019-04-11T02:52:58.654Z,99.90
2019-04-11T02:55:27.802Z,99.90
2019-04-11T02:57:59.786Z,99.90
2019-04-11T03:00:29.187Z,99.90
2019-04-11T03:02:59.421Z,99.90
2019-04-11T03:05:29.007Z,99.90
2019-04-11T03:08:00.549Z,99.90
2019-04-11T03:10:29.074Z,99.90
2019-04-11T03:12:59.022Z,99.90
2019-04-11T03:15:43.006Z,99.90
2019-04-11T03:18:02.173Z,99.90
2019-04-11T03:20:36.925Z,99.90
2019-04-11T03:23:12.366Z,99.90
2019-04-11T03:25:40.632Z,99.90
2019-04-11T03:28:13.718Z,99.90
2019-04-11T03:31:01.282Z,99.90
2019-04-11T03:34:01.724Z,99.90
2019-04-11T03:38:31.567Z,99.90
2019-04-11T03:40:57.749Z,99.90
2019-04-11T03:43:24.372Z,99.90
2019-04-11T03:46:01.474Z,99.90
2019-04-11T03:48:27.660Z,99.90
2019-04-11T03:50:42.715Z,99.90
2019-04-11T03:53:14.364Z,99.90
2019-04-11T03:55:43.586Z,99.90
2019-04-11T03:58:13.260Z,99.90
2019-04-11T04:00:44.367Z,99.90
2019-04-11T04:03:14.130Z,99.90
2019-04-11T04:05:44.386Z,99.90
2019-04-11T04:08:13.684Z,99.90
2019-04-11T04:10:43.894Z,99.90
2019-04-11T04:13:16.890Z,99.90
2019-04-11T04:16:04.139Z,99.90
2019-04-11T04:18:38.086Z,99.90
2019-04-11T04:21:20.463Z,99.90
2019-04-11T04:23:51.252Z,99.90
2019-04-11T04:26:19.994Z,99.90
2019-04-11T04:28:48.461Z,99.90
2019-04-11T04:31:18.433Z,99.90
2019-04-11T04:33:47.652Z,99.90
2019-04-11T04:36:18.256Z,99.90
2019-04-11T04:38:48.618Z,99.90
2019-04-11T04:41:29.751Z,99.90
2019-04-11T04:43:50.453Z,99.70
2019-04-11T04:46:36.610Z,99.90
2019-04-11T04:48:51.393Z,99.90
2019-04-11T04:51:20.505Z,99.90
2019-04-11T04:53:50.316Z,99.90
2019-04-11T04:56:24.445Z,99.70
2019-04-11T04:58:50.773Z,99.50
2019-04-11T05:01:21.175Z,99.50
2019-04-11T05:03:50.936Z,99.60
2019-04-11T05:06:24.027Z,99.20
2019-04-11T05:08:51.696Z,99.70
2019-04-11T05:11:20.225Z,99.00
2019-04-11T05:13:51.281Z,99.20
2019-04-11T05:16:19.395Z,99.10
2019-04-11T05:18:48.465Z,98.60
2019-04-11T05:21:17.095Z,97.90
2019-04-11T05:23:46.027Z,97.40
2019-04-11T05:26:15.220Z,97.40
2019-04-11T05:28:43.913Z,96.70
2019-04-11T05:31:12.462Z,97.00
2019-04-11T05:33:40.963Z,96.80
2019-04-11T05:36:09.536Z,96.00
2019-04-11T05:38:38.331Z,96.20
2019-04-11T05:41:10.951Z,95.30
2019-04-11T05:43:39.833Z,93.50
2019-04-11T05:46:25.161Z,91.10
2019-04-11T05:49:00.523Z,86.00
2019-04-11T05:51:37.830Z,74.40
2019-04-11T05:53:59.705Z,66.90
2019-04-11T05:56:30.530Z,61.80
2019-04-11T05:59:09.600Z,57.50
2019-04-11T06:01:46.581Z,52.70
2019-04-11T06:04:30.198Z,50.40
2019-04-11T06:07:01.621Z,46.30
2019-04-11T06:09:35.965Z,45.30
2019-04-11T06:12:21.231Z,42.70
2019-04-11T06:14:57.678Z,38.50
2019-04-11T06:17:26.631Z,36.40
2019-04-11T06:20:12.607Z,37.00
2019-04-11T06:22:58.265Z,35.90
2019-04-11T06:25:40.272Z,35.30
2019-04-11T06:28:09.566Z,33.10
2019-04-11T06:30:44.330Z,33.90
2019-04-11T06:33:14.600Z,35.90
2019-04-11T06:35:54.566Z,36.40
2019-04-11T06:38:27.785Z,38.20
2019-04-11T06:41:01.977Z,39.10
2019-04-11T06:43:36.210Z,39.00
2019-04-11T06:49:09.840Z,42.50
2019-04-11T06:51:40.059Z,39.60
2019-04-11T06:54:19.535Z,39.00
2019-04-11T06:56:52.255Z,36.00
2019-04-11T06:59:26.099Z,33.40
2019-04-11T07:02:12.377Z,33.70
2019-04-11T07:04:39.852Z,35.70
2019-04-11T07:07:11.088Z,34.60
2019-04-11T07:09:44.996Z,34.60
2019-04-11T07:12:18.409Z,31.70
2019-04-11T07:14:51.606Z,31.60
2019-04-11T07:17:50.412Z,32.20
2019-04-11T07:20:37.874Z,33.80
2019-04-11T07:23:24.548Z,35.00
2019-04-11T07:25:58.125Z,33.50
2019-04-11T07:28:41.676Z,32.00
2019-04-11T07:31:30.034Z,31.10
2019-04-11T07:53:19.733Z,27.40
2019-04-11T07:55:40.800Z,27.30
2019-04-11T07:58:23.945Z,25.60
2019-04-11T08:01:22.837Z,25.80
2019-04-11T08:04:24.088Z,25.10
2019-04-11T08:07:09.177Z,24.20
2019-04-11T08:09:55.850Z,24.00
2019-04-11T08:12:23.558Z,25.00
2019-04-11T08:15:09.783Z,25.80
2019-04-11T08:17:43.127Z,25.70
2019-04-11T08:20:31.843Z,25.50
2019-04-11T08:23:01.910Z,26.00
2019-04-11T08:25:49.257Z,25.40
2019-04-11T08:28:18.479Z,24.50
2019-04-11T08:31:26.236Z,23.70
2019-04-11T08:33:48.851Z,25.40
2019-04-11T08:36:19.833Z,28.10
2019-04-11T08:38:56.451Z,27.40
2019-04-11T08:41:35.848Z,29.30
2019-04-11T08:44:05.615Z,29.80
2019-04-11T08:46:37.360Z,26.10
2019-04-11T08:49:17.636Z,26.10
2019-04-11T08:51:51.650Z,25.50
2019-04-11T08:54:41.739Z,26.00
2019-04-11T08:57:13.771Z,25.20
2019-04-11T08:59:55.356Z,25.00
2019-04-11T09:02:31.699Z,26.80
2019-04-11T09:05:15.207Z,28.70
2019-04-11T09:08:02.371Z,28.80
2019-04-11T09:10:52.569Z,30.50
2019-04-11T09:13:22.984Z,31.00
2019-04-11T09:15:57.175Z,34.50
2019-04-11T09:18:36.485Z,27.90
2019-04-11T09:21:26.524Z,26.70
2019-04-11T09:23:57.810Z,26.70
2019-04-11T09:26:58.313Z,25.20
2019-04-11T09:29:32.335Z,25.90
2019-04-11T09:32:02.584Z,23.30
2019-04-11T09:34:47.986Z,23.30
2019-04-11T09:37:19.173Z,24.70
2019-04-11T09:39:56.615Z,26.60
2019-04-11T09:42:38.697Z,29.80
2019-04-11T09:45:29.763Z,29.30
2019-04-11T09:48:19.281Z,25.70
2019-04-11T09:50:51.649Z,25.60
2019-04-11T09:53:22.761Z,26.60
2019-04-11T09:56:15.119Z,26.20
2019-04-11T09:58:48.221Z,27.00
2019-04-11T10:01:26.817Z,28.90
2019-04-11T10:04:12.124Z,27.00
2019-04-11T10:06:55.317Z,27.30
2019-04-11T10:09:26.123Z,26.00
2019-04-11T10:12:15.892Z,27.10
2019-04-11T10:14:50.093Z,27.10
2019-04-11T10:17:25.994Z,28.10
2019-04-11T10:20:00.497Z,30.00
2019-04-11T10:22:47.919Z,29.70
2019-04-11T10:25:23.856Z,29.60
2019-04-11T10:28:13.324Z,27.70
2019-04-11T10:30:53.647Z,25.70
2019-04-11T10:33:33.155Z,28.50
2019-04-11T10:36:19.478Z,29.50
2019-04-11T10:38:57.426Z,27.70
2019-04-11T10:41:44.666Z,30.50
2019-04-11T10:44:15.895Z,30.10
2019-04-11T10:46:50.066Z,30.60
2019-04-11T10:49:22.967Z,31.30
2019-04-11T10:52:21.059Z,30.70
2019-04-11T10:55:03.754Z,28.60
2019-04-11T10:57:52.117Z,32.50
2019-04-11T11:00:23.006Z,31.40
2019-04-11T11:02:55.966Z,28.20
2019-04-11T11:05:26.327Z,33.10
2019-04-11T11:07:57.161Z,34.40
2019-04-11T11:10:31.194Z,32.80
2019-04-11T11:13:21.636Z,35.10
2019-04-11T11:15:51.925Z,35.20
2019-04-11T11:19:03.600Z,32.10
2019-04-11T11:21:13.333Z,33.90
2019-04-11T11:24:06.370Z,32.30
2019-04-11T11:26:36.271Z,36.50
2019-04-11T11:29:24.409Z,35.50
2019-04-11T11:32:03.297Z,34.30
2019-04-11T11:34:36.741Z,35.20
2019-04-11T11:37:07.072Z,32.40
2019-04-11T11:39:37.431Z,32.50
2019-04-11T11:42:26.770Z,33.30
2019-04-11T11:44:59.564Z,34.50
2019-04-11T11:47:46.042Z,33.30
2019-04-11T11:50:18.749Z,33.10
2019-04-11T11:52:54.117Z,32.80
2019-04-11T11:55:41.792Z,37.30
2019-04-11T11:58:16.996Z,33.80
2019-04-11T12:00:52.033Z,37.50
2019-04-11T12:03:29.972Z,37.00
2019-04-11T12:06:03.056Z,38.90
2019-04-11T12:08:46.634Z,39.40
2019-04-11T12:11:17.712Z,39.00
2019-04-11T12:13:53.797Z,41.70
2019-04-11T12:16:45.046Z,39.50
2019-04-11T12:19:20.343Z,35.50
2019-04-11T12:21:53.645Z,36.20
2019-04-11T12:24:41.653Z,37.70
2019-04-11T12:27:18.682Z,38.70
2019-04-11T12:30:05.881Z,43.50
2019-04-11T12:32:41.786Z,37.70
2019-04-11T12:35:30.553Z,38.90
2019-04-11T12:38:00.770Z,41.60
2019-04-11T12:40:30.836Z,38.80
2019-04-11T12:43:03.846Z,38.00
2019-04-11T12:45:37.005Z,38.80
2019-04-11T12:48:07.379Z,41.40
2019-04-11T12:50:52.394Z,42.80
2019-04-11T12:53:23.564Z,41.30
2019-04-11T12:55:54.470Z,39.40
2019-04-11T12:58:27.253Z,40.40
2019-04-11T13:01:16.567Z,43.70
2019-04-11T13:04:03.348Z,47.00
2019-04-11T13:06:36.368Z,43.00
2019-04-11T13:09:11.802Z,46.50
2019-04-11T13:11:41.870Z,42.20
2019-04-11T13:14:15.018Z,45.50
2019-04-11T13:16:51.232Z,43.60
2019-04-11T13:19:37.546Z,43.00
2019-04-11T13:22:10.582Z,45.70
2019-04-11T13:24:46.617Z,45.30
2019-04-11T13:27:21.267Z,46.80
2019-04-11T13:30:10.858Z,45.50
2019-04-11T13:32:46.906Z,51.70
2019-04-11T13:35:22.574Z,46.90
2019-04-11T13:38:11.269Z,45.10
2019-04-11T13:40:47.169Z,46.50
2019-04-11T13:43:29.462Z,51.20
2019-04-11T13:46:06.227Z,55.90
2019-04-11T13:48:49.423Z,51.40
2019-04-11T13:51:31.099Z,54.60
2019-04-11T13:54:18.446Z,49.50
2019-04-11T13:56:48.549Z,50.10
2019-04-11T13:59:36.766Z,53.60
2019-04-11T14:02:29.275Z,47.70
2019-04-11T14:04:59.350Z,50.20
2019-04-11T14:07:30.633Z,50.60
2019-04-11T14:10:01.459Z,46.20
2019-04-11T14:12:37.258Z,51.60
2019-04-11T14:15:10.577Z,54.20
2019-04-11T14:17:49.258Z,56.90
2019-04-11T14:20:28.617Z,55.20
2019-04-11T14:23:03.451Z,55.20
2019-04-11T14:25:52.817Z,53.10
2019-04-11T14:28:23.138Z,55.80
2019-04-11T14:31:12.382Z,55.40
2019-04-11T14:33:56.026Z,56.20
2019-04-11T14:36:42.110Z,55.30
2019-04-11T14:39:12.170Z,56.70
2019-04-11T14:41:45.241Z,48.30
2019-04-11T14:44:20.730Z,56.20
2019-04-11T14:46:53.739Z,55.10
2019-04-11T14:49:22.200Z,54.20
2019-04-11T14:52:16.957Z,56.70
2019-04-11T14:54:52.270Z,59.10
2019-04-11T14:57:25.570Z,57.00
2019-04-11T15:00:05.110Z,57.80
2019-04-11T15:02:51.257Z,57.60
2019-04-11T15:05:36.428Z,56.60
2019-04-11T15:08:12.226Z,55.60
2019-04-11T15:11:00.886Z,54.00
2019-04-11T15:13:30.896Z,50.30
2019-04-11T15:16:06.592Z,52.50
2019-04-11T15:18:36.652Z,55.60
2019-04-11T15:21:09.725Z,59.90
2019-04-11T15:23:41.402Z,58.50
2019-04-11T15:26:33.951Z,59.50
2019-04-11T15:29:04.721Z,58.80
2019-04-11T15:31:39.627Z,59.90
2019-04-11T15:34:21.479Z,57.20
2019-04-11T15:36:57.931Z,52.30
2019-04-11T15:39:49.843Z,54.30
2019-04-11T15:42:19.907Z,59.10
2019-04-11T15:44:58.594Z,54.60
2019-04-11T15:47:28.662Z,58.30
2019-04-11T15:50:07.461Z,56.50
2019-04-11T15:52:37.615Z,56.70
2019-04-11T15:55:08.552Z,62.40
2019-04-11T15:57:42.605Z,60.50
2019-04-11T16:00:17.470Z,59.80
2019-04-11T16:02:47.525Z,58.10
2019-04-11T16:05:34.376Z,60.10
2019-04-11T16:08:22.032Z,61.80
2019-04-11T16:10:52.139Z,58.20
2019-04-11T16:13:28.075Z,62.50
2019-04-11T16:16:07.031Z,61.40
2019-04-11T16:18:41.079Z,61.40
2019-04-11T16:21:30.536Z,62.00
2019-04-11T16:24:06.511Z,62.90
2019-04-11T16:26:51.064Z,62.80
2019-04-11T16:29:27.615Z,68.80
2019-04-11T16:31:57.678Z,66.10
2019-04-11T16:34:27.760Z,62.70
2019-04-11T16:37:00.431Z,68.70
2019-04-11T16:39:33.123Z,66.80
2019-04-11T16:42:06.201Z,70.00
2019-04-11T16:44:42.387Z,69.60
2019-04-11T16:47:21.230Z,67.90
2019-04-11T16:49:57.012Z,68.40
2019-04-11T16:52:31.827Z,68.10
2019-04-11T16:55:03.155Z,75.10
2019-04-11T16:57:39.143Z,77.60
2019-04-11T17:00:10.667Z,81.40
2019-04-11T17:02:39.122Z,80.80
2019-04-11T17:05:11.701Z,82.30
2019-04-11T17:07:41.759Z,75.50
2019-04-11T17:10:18.709Z,79.60
2019-04-11T17:12:49.778Z,76.00
2019-04-11T17:15:19.607Z,79.90
2019-04-11T17:17:50.776Z,83.40
2019-04-11T17:20:24.091Z,81.70
2019-04-11T17:22:52.522Z,85.90
2019-04-11T17:25:22.592Z,88.10
2019-04-11T17:27:53.302Z,84.70
2019-04-11T17:30:24.486Z,85.30
2019-04-11T17:32:55.360Z,87.20
2019-04-11T17:35:24.298Z,86.70
2019-04-11T17:37:58.478Z,88.50
2019-04-11T17:40:26.926Z,87.70
2019-04-11T17:42:58.211Z,84.60
2019-04-11T17:45:32.026Z,86.10
2019-04-11T17:48:05.366Z,89.90
2019-04-11T17:50:39.426Z,90.30
2019-04-11T17:53:09.498Z,88.80
2019-04-11T17:55:40.588Z,87.90
2019-04-11T17:58:18.694Z,89.40
2019-04-11T18:01:04.702Z,90.10
2019-04-11T18:03:30.864Z,89.80
2019-04-11T18:06:05.226Z,90.60
2019-04-11T18:08:33.653Z,90.10
2019-04-11T18:11:05.118Z,91.20
2019-04-11T18:13:35.185Z,90.30
2019-04-11T18:16:06.510Z,90.60
2019-04-11T18:18:35.807Z,90.60
2019-04-11T18:21:07.361Z,90.30
2019-04-11T18:23:36.417Z,90.50
2019-04-11T18:26:06.985Z,91.20
2019-04-11T18:28:38.280Z,91.10
2019-04-11T18:31:06.765Z,91.00
2019-04-11T18:33:37.847Z,91.00
2019-04-11T18:36:09.594Z,92.70
2019-04-11T18:38:41.086Z,92.20
2019-04-11T18:41:09.514Z,92.20
2019-04-11T18:43:38.338Z,92.80
2019-04-11T18:46:08.679Z,91.70
2019-04-11T18:48:39.758Z,92.30
2019-04-11T18:51:11.181Z,92.20
2019-04-11T18:53:39.619Z,92.10
2019-04-11T18:56:09.756Z,91.90
2019-04-11T18:58:41.123Z,91.50
2019-04-11T19:01:10.022Z,91.30
2019-04-11T19:03:51.854Z,90.90
2019-04-11T19:06:28.070Z,92.00
2019-04-11T19:08:54.058Z,91.50
2019-04-11T19:11:37.154Z,92.30
2019-04-11T19:14:07.222Z,92.20
2019-04-11T19:16:40.039Z,91.70
2019-04-11T19:19:08.462Z,92.50
2019-04-11T19:21:41.413Z,92.10
2019-04-11T19:24:12.942Z,91.80
2019-04-11T19:26:40.466Z,92.70
2019-04-11T19:29:08.887Z,91.80
2019-04-11T19:31:37.304Z,92.30
2019-04-11T19:34:13.121Z,92.20
2019-04-11T19:36:49.723Z,92.30
2019-04-11T19:39:19.842Z,92.40
2019-04-11T19:41:49.909Z,93.00
2019-04-11T19:44:22.971Z,93.40
2019-04-11T19:46:58.353Z,93.50
2019-04-11T19:49:28.940Z,94.30
2019-04-11T19:51:58.655Z,93.00
2019-04-11T19:54:32.715Z,94.20
2019-04-11T19:57:07.897Z,94.20
2019-04-11T19:59:40.729Z,93.60
2019-04-11T20:02:14.536Z,93.30
2019-04-11T20:04:43.625Z,93.20
2019-04-11T20:07:13.682Z,93.30
2019-04-11T20:09:45.013Z,93.50
2019-04-11T20:12:13.477Z,93.50
2019-04-11T20:14:44.915Z,93.30
2019-04-11T20:17:19.326Z,93.50
2019-04-11T20:20:01.233Z,93.70
2019-04-11T20:22:24.209Z,94.10
2019-04-11T20:24:54.586Z,94.20
2019-04-11T20:27:28.502Z,94.40
2019-04-11T20:30:01.580Z,94.50
2019-04-11T20:32:30.580Z,94.50
2019-04-11T20:35:09.371Z,94.40
2019-04-11T20:37:39.588Z,94.70
2019-04-11T20:40:12.033Z,95.20
2019-04-11T20:42:43.519Z,95.20
2019-04-11T20:45:15.587Z,95.30
2019-04-11T20:47:46.522Z,94.80
2019-04-11T20:50:22.765Z,94.70
2019-04-11T20:52:54.598Z,94.90
2019-04-11T20:55:28.155Z,94.80
2019-04-11T20:58:09.928Z,95.40
2019-04-11T21:00:49.479Z,95.10
2019-04-11T21:03:09.687Z,94.90
2019-04-11T21:05:38.115Z,95.20
2019-04-11T21:08:11.568Z,94.70
2019-04-11T21:10:40.523Z,94.70
2019-04-11T21:13:10.586Z,95.00
2019-04-11T21:15:41.754Z,95.10
2019-04-11T21:18:25.845Z,95.10
2019-04-11T21:20:55.809Z,95.20
2019-04-11T21:23:29.400Z,95.20
2019-04-11T21:26:01.482Z,95.00
2019-04-11T21:28:30.187Z,95.00
2019-04-11T21:31:00.172Z,95.20
2019-04-11T21:33:36.453Z,95.30
2019-04-11T21:36:07.923Z,95.00
2019-04-11T21:38:37.976Z,95.20
2019-04-11T21:41:06.735Z,95.50
2019-04-11T21:43:38.052Z,95.60
2019-04-11T21:46:09.021Z,95.50
2019-04-11T21:48:46.201Z,95.90
2019-04-11T21:51:14.629Z,95.70
2019-04-11T21:53:51.620Z,95.70
2019-04-11T21:56:32.027Z,95.70
2019-04-11T21:59:08.878Z,95.70
2019-04-11T22:01:45.669Z,95.80
2019-04-11T22:04:19.174Z,95.90
2019-04-11T22:06:49.246Z,96.10
2019-04-11T22:09:17.733Z,96.10
2019-04-11T22:11:47.789Z,96.20
2019-04-11T22:14:18.325Z,96.40
2019-04-11T22:16:48.286Z,96.10
2019-04-11T22:19:21.436Z,96.20
2019-04-11T22:21:51.501Z,96.40
2019-04-11T22:24:25.320Z,96.30
2019-04-11T22:27:03.357Z,96.30
2019-04-11T22:29:34.397Z,96.40
2019-04-11T22:32:04.773Z,96.50
2019-04-11T22:34:46.426Z,96.40
2019-04-11T22:37:20.835Z,96.30
2019-04-11T22:39:52.086Z,96.50
2019-04-11T22:42:26.077Z,96.20
2019-04-11T22:44:56.038Z,96.20
2019-04-11T22:47:30.225Z,96.10
2019-04-11T22:49:58.636Z,96.30
2019-04-11T22:52:27.076Z,96.10
2019-04-11T22:54:57.123Z,96.10
2019-04-11T22:57:25.562Z,96.20
2019-04-11T22:59:54.005Z,96.30
2019-04-11T23:02:26.756Z,96.30
2019-04-11T23:05:01.096Z,96.40
2019-04-11T23:07:38.170Z,96.40
2019-04-11T23:10:10.122Z,96.70
2019-04-11T23:12:42.891Z,96.60
2019-04-11T23:15:15.659Z,96.70
2019-04-11T23:17:46.954Z,96.60
2019-04-11T23:20:18.345Z,96.80
2019-04-11T23:22:52.133Z,96.80
2019-04-11T23:25:29.441Z,97.10
2019-04-11T23:28:05.346Z,97.00
2019-04-11T23:30:36.531Z,96.80
2019-04-11T23:33:15.207Z,96.90
2019-04-11T23:35:43.648Z,97.10
2019-04-11T23:38:17.811Z,97.20
2019-04-11T23:40:43.844Z,97.20
2019-04-11T23:43:15.326Z,97.20
2019-04-11T23:45:45.578Z,97.10
2019-04-11T23:48:23.720Z,97.10
2019-04-11T23:50:54.853Z,97.10
2019-04-11T23:53:22.882Z,96.90
2019-04-11T23:55:52.961Z,97.10
2019-04-11T23:58:24.305Z,97.00
